createdAt,value
2023-01-04T00:11:26.600Z,1022.41
2023-01-04T00:26:27.711Z,1022.11
2023-01-04T00:41:56.847Z,1021.92
2023-01-04T00:56:33.946Z,1021.51
2023-01-04T01:11:36.300Z,1021.33
2023-01-04T01:26:38.169Z,1021.53
2023-01-04T01:41:39.319Z,1021.81
2023-01-04T01:56:39.900Z,1021.42
2023-01-04T02:11:41.779Z,1020.86
2023-01-04T02:26:43.662Z,1020.18
2023-01-04T02:41:45.587Z,1019.84
2023-01-04T02:56:47.429Z,1019.83
2023-01-04T03:11:49.724Z,1019.66
2023-01-04T03:26:51.652Z,1019.30
2023-01-04T03:41:53.488Z,1018.83
2023-01-04T03:56:55.396Z,1018.70
2023-01-04T04:11:57.260Z,1018.22
2023-01-04T04:26:59.141Z,1017.86
2023-01-04T04:42:00.028Z,1017.41
2023-01-04T04:57:02.331Z,1017.11
2023-01-04T05:12:03.073Z,1016.84
2023-01-04T05:27:04.967Z,1016.15
2023-01-04T05:42:05.275Z,1015.96
2023-01-04T05:57:07.795Z,1015.72
2023-01-04T06:12:08.360Z,1015.40
2023-01-04T06:27:10.883Z,1015.09
2023-01-04T06:42:11.482Z,1014.69
2023-01-04T06:57:14.965Z,1014.44
2023-01-04T07:12:14.844Z,1014.22
2023-01-04T07:27:16.593Z,1013.84
2023-01-04T07:42:17.215Z,1013.49
2023-01-04T07:57:17.934Z,1013.11
2023-01-04T08:12:18.464Z,1012.90
2023-01-04T08:27:19.090Z,1012.80
2023-01-04T08:42:28.512Z,1012.68
2023-01-04T08:57:25.354Z,1012.51
2023-01-04T09:12:25.936Z,1012.32
2023-01-04T09:27:26.603Z,1012.04
2023-01-04T09:42:33.364Z,1011.65
2023-01-04T09:57:32.782Z,1011.40
2023-01-04T10:12:33.394Z,1011.04
2023-01-04T10:27:37.828Z,1010.72
2023-01-04T10:42:39.194Z,1010.51
2023-01-04T10:57:42.275Z,1010.30
2023-01-04T11:12:43.092Z,1009.99
2023-01-04T11:27:44.872Z,1009.97
2023-01-04T11:42:46.696Z,1009.51
2023-01-04T11:57:48.956Z,1009.29
2023-01-04T12:12:49.841Z,1008.96
2023-01-04T12:27:50.635Z,1008.90
2023-01-04T12:42:51.253Z,1008.56
2023-01-04T12:57:53.164Z,1008.22
2023-01-04T13:12:55.070Z,1007.99
2023-01-04T13:27:58.164Z,1007.93
2023-01-04T13:42:59.015Z,1007.77
2023-01-04T13:58:01.087Z,1007.68
2023-01-04T14:13:02.618Z,1007.51
2023-01-04T14:28:05.536Z,1007.21
2023-01-04T14:43:06.838Z,1006.99
2023-01-04T14:58:07.957Z,1007.03
2023-01-04T15:13:09.036Z,1006.87
2023-01-04T15:28:12.149Z,1006.78
2023-01-04T15:43:13.561Z,1006.51
2023-01-04T15:58:14.146Z,1006.42
2023-01-04T16:13:14.979Z,1006.30
2023-01-04T16:28:15.595Z,1005.96
2023-01-04T16:43:16.196Z,1005.62
2023-01-04T16:58:17.257Z,1005.60
2023-01-04T17:13:17.429Z,1005.24
2023-01-04T17:28:24.521Z,1004.77
2023-01-04T17:43:23.693Z,1004.92
2023-01-04T17:58:24.239Z,1005.00
2023-01-04T18:13:25.315Z,1005.02
2023-01-04T18:28:25.489Z,1004.75
2023-01-04T18:43:27.472Z,1004.74
2023-01-04T18:58:27.957Z,1004.48
2023-01-04T19:13:30.260Z,1004.33
2023-01-04T19:28:30.542Z,1004.32
2023-01-04T19:43:31.885Z,1004.41
2023-01-04T19:58:32.014Z,1004.30
2023-01-04T20:13:33.368Z,1004.49
2023-01-04T20:28:34.237Z,1004.39
2023-01-04T20:43:37.129Z,1004.28
2023-01-04T20:58:36.958Z,1004.17
2023-01-04T21:13:37.561Z,1004.04
2023-01-04T21:28:38.180Z,1004.08
2023-01-04T21:43:38.288Z,1003.95
2023-01-04T21:58:39.141Z,1003.82
2023-01-04T22:13:42.536Z,1003.92
2023-01-04T22:28:43.610Z,1003.67
2023-01-04T22:43:44.166Z,1003.78
2023-01-04T22:58:52.520Z,1003.95
2023-01-04T23:13:55.312Z,1003.94
2023-01-04T23:28:57.548Z,1003.87
2023-01-04T23:43:59.791Z,1003.85
2023-01-04T23:59:00.906Z,1003.78
